sensor_id;sensor_type;location;lat;lon;timestamp;pressure;altitude;pressure_sealevel;temperature;humidity
39267;BME280;24967;51.154;13.812;2023-09-18T00:00:08;99236.47;;;21.44;60.82
39267;BME280;24967;51.154;13.812;2023-09-18T00:02:37;99227.69;;;21.49;60.69
39267;BME280;24967;51.154;13.812;2023-09-18T00:05:04;99238.50;;;21.49;61.11
39267;BME280;24967;51.154;13.812;2023-09-18T00:07:31;99233.47;;;21.53;61.35
39267;BME280;24967;51.154;13.812;2023-09-18T00:09:57;99226.88;;;21.48;61.47
39267;BME280;24967;51.154;13.812;2023-09-18T00:12:24;99228.25;;;21.51;61.15
39267;BME280;24967;51.154;13.812;2023-09-18T00:14:50;99226.97;;;21.54;60.89
39267;BME280;24967;51.154;13.812;2023-09-18T00:17:18;99222.41;;;21.54;61.05
39267;BME280;24967;51.154;13.812;2023-09-18T00:19:45;99215.34;;;21.53;60.92
39267;BME280;24967;51.154;13.812;2023-09-18T00:22:12;99211.72;;;21.59;60.79
39267;BME280;24967;51.154;13.812;2023-09-18T00:24:38;99206.78;;;21.56;60.68
39267;BME280;24967;51.154;13.812;2023-09-18T00:27:05;99208.97;;;21.47;60.96
39267;BME280;24967;51.154;13.812;2023-09-18T00:29:31;99214.47;;;21.41;61.08
39267;BME280;24967;51.154;13.812;2023-09-18T00:31:57;99207.88;;;21.37;61.10
39267;BME280;24967;51.154;13.812;2023-09-18T00:34:25;99211.47;;;21.31;61.29
39267;BME280;24967;51.154;13.812;2023-09-18T00:36:52;99203.06;;;21.20;61.70
39267;BME280;24967;51.154;13.812;2023-09-18T00:39:18;99202.69;;;21.17;61.58
39267;BME280;24967;51.154;13.812;2023-09-18T00:41:45;99204.78;;;21.15;61.68
39267;BME280;24967;51.154;13.812;2023-09-18T00:44:14;99198.28;;;21.04;62.06
39267;BME280;24967;51.154;13.812;2023-09-18T00:46:41;99196.03;;;21.01;62.05
39267;BME280;24967;51.154;13.812;2023-09-18T00:49:07;99195.69;;;20.97;62.42
39267;BME280;24967;51.154;13.812;2023-09-18T00:51:36;99190.47;;;20.96;62.61
39267;BME280;24967;51.154;13.812;2023-09-18T00:54:02;99195.16;;;20.89;62.99
39267;BME280;24967;51.154;13.812;2023-09-18T00:56:29;99195.16;;;20.89;63.56
39267;BME280;24967;51.154;13.812;2023-09-18T00:58:55;99196.44;;;20.86;63.75
39267;BME280;24967;51.154;13.812;2023-09-18T01:01:22;99197.25;;;20.87;64.13
39267;BME280;24967;51.154;13.812;2023-09-18T01:03:49;99189.22;;;20.80;64.32
39267;BME280;24967;51.154;13.812;2023-09-18T01:06:18;99190.78;;;20.88;64.09
39267;BME280;24967;51.154;13.812;2023-09-18T01:08:47;99186.16;;;20.95;64.00
39267;BME280;24967;51.154;13.812;2023-09-18T01:11:26;99181.19;;;20.92;64.49
39267;BME280;24967;51.154;13.812;2023-09-18T01:13:59;99176.59;;;20.92;64.03
39267;BME280;24967;51.154;13.812;2023-09-18T01:16:34;99171.81;;;20.94;63.93
39267;BME280;24967;51.154;13.812;2023-09-18T01:19:01;99165.81;;;20.92;63.95
39267;BME280;24967;51.154;13.812;2023-09-18T01:21:28;99167.91;;;20.90;64.25
39267;BME280;24967;51.154;13.812;2023-09-18T01:23:56;99161.06;;;20.88;64.23
39267;BME280;24967;51.154;13.812;2023-09-18T01:26:23;99163.31;;;20.91;64.24
39267;BME280;24967;51.154;13.812;2023-09-18T01:28:49;99154.19;;;20.92;64.19
39267;BME280;24967;51.154;13.812;2023-09-18T01:31:16;99153.88;;;20.81;64.43
39267;BME280;24967;51.154;13.812;2023-09-18T01:33:43;99151.47;;;20.92;64.31
39267;BME280;24967;51.154;13.812;2023-09-18T01:36:13;99151.16;;;20.81;64.86
39267;BME280;24967;51.154;13.812;2023-09-18T01:38:41;99147.53;;;20.76;64.81
39267;BME280;24967;51.154;13.812;2023-09-18T01:41:09;99144.81;;;20.76;64.91
39267;BME280;24967;51.154;13.812;2023-09-18T01:43:36;99134.84;;;20.76;64.80
39267;BME280;24967;51.154;13.812;2023-09-18T01:46:03;99134.31;;;20.68;64.91
39267;BME280;24967;51.154;13.812;2023-09-18T01:48:30;99131.00;;;20.66;65.03
39267;BME280;24967;51.154;13.812;2023-09-18T01:50:57;99128.19;;;20.61;65.26
39267;BME280;24967;51.154;13.812;2023-09-18T01:53:24;99125.69;;;20.59;65.61
39267;BME280;24967;51.154;13.812;2023-09-18T01:55:51;99116.06;;;20.63;65.51
39267;BME280;24967;51.154;13.812;2023-09-18T01:58:19;99113.28;;;20.51;66.08
39267;BME280;24967;51.154;13.812;2023-09-18T02:00:45;99113.09;;;20.53;65.95
39267;BME280;24967;51.154;13.812;2023-09-18T02:03:12;99107.94;;;20.45;66.43
39267;BME280;24967;51.154;13.812;2023-09-18T02:05:39;99112.78;;;20.43;66.44
39267;BME280;24967;51.154;13.812;2023-09-18T02:08:06;99109.53;;;20.16;67.71
39267;BME280;24967;51.154;13.812;2023-09-18T02:10:33;99114.06;;;20.15;68.01
39267;BME280;24967;51.154;13.812;2023-09-18T02:12:59;99101.47;;;20.09;68.13
39267;BME280;24967;51.154;13.812;2023-09-18T02:15:27;99108.09;;;20.13;68.16
39267;BME280;24967;51.154;13.812;2023-09-18T02:17:57;99099.38;;;20.11;68.08
39267;BME280;24967;51.154;13.812;2023-09-18T02:20:24;99103.59;;;20.07;68.21
39267;BME280;24967;51.154;13.812;2023-09-18T02:22:50;99110.41;;;20.09;67.94
39267;BME280;24967;51.154;13.812;2023-09-18T02:25:17;99107.47;;;20.11;68.13
39267;BME280;24967;51.154;13.812;2023-09-18T02:27:43;99102.69;;;20.13;67.96
39267;BME280;24967;51.154;13.812;2023-09-18T02:30:11;99091.13;;;20.06;68.43
39267;BME280;24967;51.154;13.812;2023-09-18T02:32:39;99087.16;;;20.08;68.57
39267;BME280;24967;51.154;13.812;2023-09-18T02:35:06;99089.66;;;20.10;68.43
39267;BME280;24967;51.154;13.812;2023-09-18T02:37:33;99084.31;;;20.03;68.63
39267;BME280;24967;51.154;13.812;2023-09-18T02:40:00;99086.03;;;19.98;69.10
39267;BME280;24967;51.154;13.812;2023-09-18T02:42:28;99083.66;;;20.08;68.48
39267;BME280;24967;51.154;13.812;2023-09-18T02:44:54;99077.19;;;20.09;68.14
39267;BME280;24967;51.154;13.812;2023-09-18T02:47:21;99080.72;;;19.91;69.12
39267;BME280;24967;51.154;13.812;2023-09-18T02:49:48;99067.94;;;19.80;69.86
39267;BME280;24967;51.154;13.812;2023-09-18T02:52:15;99066.00;;;19.87;69.61
39267;BME280;24967;51.154;13.812;2023-09-18T02:54:41;99063.56;;;20.04;69.28
39267;BME280;24967;51.154;13.812;2023-09-18T02:57:08;99060.34;;;19.95;69.61
39267;BME280;24967;51.154;13.812;2023-09-18T02:59:34;99054.19;;;19.88;69.91
39267;BME280;24967;51.154;13.812;2023-09-18T03:02:01;99059.97;;;19.92;69.54
39267;BME280;24967;51.154;13.812;2023-09-18T03:04:29;99053.34;;;19.87;69.92
39267;BME280;24967;51.154;13.812;2023-09-18T03:06:57;99056.47;;;19.84;70.34
39267;BME280;24967;51.154;13.812;2023-09-18T03:09:23;99053.47;;;19.74;70.99
39267;BME280;24967;51.154;13.812;2023-09-18T03:11:50;99058.34;;;19.84;70.46
39267;BME280;24967;51.154;13.812;2023-09-18T03:14:17;99051.97;;;19.78;70.70
39267;BME280;24967;51.154;13.812;2023-09-18T03:16:43;99063.41;;;19.99;69.96
39267;BME280;24967;51.154;13.812;2023-09-18T03:19:10;99071.06;;;20.02;69.68
39267;BME280;24967;51.154;13.812;2023-09-18T03:21:36;99064.00;;;20.01;69.56
39267;BME280;24967;51.154;13.812;2023-09-18T03:24:05;99067.47;;;20.08;69.28
39267;BME280;24967;51.154;13.812;2023-09-18T03:26:31;99056.06;;;20.06;68.83
39267;BME280;24967;51.154;13.812;2023-09-18T03:28:58;99060.63;;;20.05;68.72
39267;BME280;24967;51.154;13.812;2023-09-18T03:31:24;99052.91;;;20.09;68.52
39267;BME280;24967;51.154;13.812;2023-09-18T03:33:51;99050.81;;;19.93;69.87
39267;BME280;24967;51.154;13.812;2023-09-18T03:36:21;99047.66;;;19.96;69.79
39267;BME280;24967;51.154;13.812;2023-09-18T03:38:47;99039.50;;;20.02;69.58
39267;BME280;24967;51.154;13.812;2023-09-18T03:41:15;99026.91;;;20.14;68.89
39267;BME280;24967;51.154;13.812;2023-09-18T03:43:42;99032.25;;;20.21;68.42
39267;BME280;24967;51.154;13.812;2023-09-18T03:46:08;99025.63;;;20.17;68.66
39267;BME280;24967;51.154;13.812;2023-09-18T03:48:35;99021.66;;;20.20;68.43
39267;BME280;24967;51.154;13.812;2023-09-18T03:51:03;99010.25;;;20.18;68.44
39267;BME280;24967;51.154;13.812;2023-09-18T03:53:29;99020.03;;;20.19;68.53
39267;BME280;24967;51.154;13.812;2023-09-18T03:55:56;99025.34;;;20.07;68.91
39267;BME280;24967;51.154;13.812;2023-09-18T03:58:23;99022.41;;;20.08;69.06
39267;BME280;24967;51.154;13.812;2023-09-18T04:00:50;99020.97;;;20.06;69.09
39267;BME280;24967;51.154;13.812;2023-09-18T04:03:17;99019.13;;;20.06;68.85
39267;BME280;24967;51.154;13.812;2023-09-18T04:05:43;99018.28;;;20.06;68.73
39267;BME280;24967;51.154;13.812;2023-09-18T04:08:10;99021.06;;;19.99;69.20
39267;BME280;24967;51.154;13.812;2023-09-18T04:10:38;99027.28;;;20.00;69.16
39267;BME280;24967;51.154;13.812;2023-09-18T04:13:05;99022.94;;;19.99;69.02
39267;BME280;24967;51.154;13.812;2023-09-18T04:15:32;99023.38;;;19.96;69.04
39267;BME280;24967;51.154;13.812;2023-09-18T04:18:03;99020.69;;;19.96;68.90
39267;BME280;24967;51.154;13.812;2023-09-18T04:20:29;99023.47;;;19.89;69.05
39267;BME280;24967;51.154;13.812;2023-09-18T04:23:18;99012.22;;;19.92;68.84
39267;BME280;24967;51.154;13.812;2023-09-18T04:25:45;99011.06;;;19.81;69.74
39267;BME280;24967;51.154;13.812;2023-09-18T04:28:12;99002.25;;;19.93;69.29
39267;BME280;24967;51.154;13.812;2023-09-18T04:30:40;98997.38;;;19.83;69.76
39267;BME280;24967;51.154;13.812;2023-09-18T04:33:06;98994.69;;;19.83;69.88
39267;BME280;24967;51.154;13.812;2023-09-18T04:35:33;98994.53;;;19.78;70.63
39267;BME280;24967;51.154;13.812;2023-09-18T04:37:59;98993.09;;;19.75;71.05
39267;BME280;24967;51.154;13.812;2023-09-18T04:40:26;98990.28;;;19.63;71.79
39267;BME280;24967;51.154;13.812;2023-09-18T04:42:57;98989.28;;;19.83;70.96
39267;BME280;24967;51.154;13.812;2023-09-18T04:45:23;98983.22;;;19.87;70.85
39267;BME280;24967;51.154;13.812;2023-09-18T04:47:52;98978.72;;;19.81;71.67
39267;BME280;24967;51.154;13.812;2023-09-18T04:50:18;98977.00;;;19.87;71.19
39267;BME280;24967;51.154;13.812;2023-09-18T04:52:45;98977.59;;;19.71;72.58
39267;BME280;24967;51.154;13.812;2023-09-18T04:55:13;98975.34;;;19.67;72.96
39267;BME280;24967;51.154;13.812;2023-09-18T04:57:39;98971.91;;;19.79;72.51
39267;BME280;24967;51.154;13.812;2023-09-18T05:00:07;98971.16;;;19.90;71.81
39267;BME280;24967;51.154;13.812;2023-09-18T05:02:35;98972.66;;;19.86;71.96
39267;BME280;24967;51.154;13.812;2023-09-18T05:05:04;98960.97;;;19.92;71.93
39267;BME280;24967;51.154;13.812;2023-09-18T05:07:31;98968.53;;;20.02;71.46
39267;BME280;24967;51.154;13.812;2023-09-18T05:09:57;98965.84;;;20.02;71.77
39267;BME280;24967;51.154;13.812;2023-09-18T05:12:24;98961.78;;;20.11;71.20
39267;BME280;24967;51.154;13.812;2023-09-18T05:14:51;98967.78;;;20.13;71.23
39267;BME280;24967;51.154;13.812;2023-09-18T05:17:17;98964.78;;;20.21;70.94
39267;BME280;24967;51.154;13.812;2023-09-18T05:19:44;98952.75;;;20.35;70.43
39267;BME280;24967;51.154;13.812;2023-09-18T05:22:12;98958.59;;;20.32;70.47
39267;BME280;24967;51.154;13.812;2023-09-18T05:24:39;98963.09;;;20.39;70.34
39267;BME280;24967;51.154;13.812;2023-09-18T05:27:06;98947.56;;;20.52;70.01
39267;BME280;24967;51.154;13.812;2023-09-18T05:29:33;98947.75;;;20.51;70.08
39267;BME280;24967;51.154;13.812;2023-09-18T05:32:01;98937.50;;;20.41;70.57
39267;BME280;24967;51.154;13.812;2023-09-18T05:34:27;98939.16;;;20.61;69.72
39267;BME280;24967;51.154;13.812;2023-09-18T05:36:54;98928.94;;;20.63;69.60
39267;BME280;24967;51.154;13.812;2023-09-18T05:39:22;98929.78;;;20.75;69.18
39267;BME280;24967;51.154;13.812;2023-09-18T05:41:48;98938.38;;;20.84;68.91
39267;BME280;24967;51.154;13.812;2023-09-18T05:44:15;98936.66;;;21.01;68.05
39267;BME280;24967;51.154;13.812;2023-09-18T05:46:41;98935.84;;;21.12;67.70
39267;BME280;24967;51.154;13.812;2023-09-18T05:49:08;98943.47;;;21.27;67.11
39267;BME280;24967;51.154;13.812;2023-09-18T05:51:35;98930.09;;;21.32;67.16
39267;BME280;24967;51.154;13.812;2023-09-18T05:54:02;98924.09;;;21.54;65.83
39267;BME280;24967;51.154;13.812;2023-09-18T05:56:30;98924.00;;;21.48;66.66
39267;BME280;24967;51.154;13.812;2023-09-18T05:58:56;98923.31;;;21.93;64.65
39267;BME280;24967;51.154;13.812;2023-09-18T06:01:23;98917.06;;;22.05;63.76
39267;BME280;24967;51.154;13.812;2023-09-18T06:03:50;98914.78;;;22.25;63.59
39267;BME280;24967;51.154;13.812;2023-09-18T06:06:16;98908.75;;;22.35;63.18
39267;BME280;24967;51.154;13.812;2023-09-18T06:08:43;98909.28;;;22.66;61.90
39267;BME280;24967;51.154;13.812;2023-09-18T06:11:09;98906.03;;;23.14;60.92
39267;BME280;24967;51.154;13.812;2023-09-18T06:13:37;98904.13;;;23.48;58.76
39267;BME280;24967;51.154;13.812;2023-09-18T06:16:05;98900.38;;;23.71;58.16
39267;BME280;24967;51.154;13.812;2023-09-18T06:18:33;98894.81;;;23.83;57.13
39267;BME280;24967;51.154;13.812;2023-09-18T06:21:00;98889.66;;;23.82;56.82
39267;BME280;24967;51.154;13.812;2023-09-18T06:23:27;98894.38;;;23.91;56.89
39267;BME280;24967;51.154;13.812;2023-09-18T06:25:53;98885.44;;;23.91;56.80
39267;BME280;24967;51.154;13.812;2023-09-18T06:28:21;98883.78;;;23.90;57.14
39267;BME280;24967;51.154;13.812;2023-09-18T06:30:49;98892.06;;;23.61;58.11
39267;BME280;24967;51.154;13.812;2023-09-18T06:33:16;98886.25;;;23.52;58.16
39267;BME280;24967;51.154;13.812;2023-09-18T06:35:42;98884.66;;;23.35;58.98
39267;BME280;24967;51.154;13.812;2023-09-18T06:38:09;98886.56;;;23.34;59.24
39267;BME280;24967;51.154;13.812;2023-09-18T06:40:38;98884.06;;;23.32;59.11
39267;BME280;24967;51.154;13.812;2023-09-18T06:43:04;98874.94;;;23.39;59.13
39267;BME280;24967;51.154;13.812;2023-09-18T06:45:31;98871.63;;;23.15;59.66
39267;BME280;24967;51.154;13.812;2023-09-18T06:48:00;98870.25;;;23.12;59.70
39267;BME280;24967;51.154;13.812;2023-09-18T06:50:26;98864.97;;;23.05;59.66
39267;BME280;24967;51.154;13.812;2023-09-18T06:52:53;98860.94;;;23.08;59.42
39267;BME280;24967;51.154;13.812;2023-09-18T06:55:19;98860.47;;;23.11;59.95
39267;BME280;24967;51.154;13.812;2023-09-18T06:57:46;98854.41;;;23.04;59.81
39267;BME280;24967;51.154;13.812;2023-09-18T07:00:13;98856.22;;;22.98;60.17
39267;BME280;24967;51.154;13.812;2023-09-18T07:02:43;98850.38;;;23.06;59.96
39267;BME280;24967;51.154;13.812;2023-09-18T07:05:11;98852.00;;;23.07;60.35
39267;BME280;24967;51.154;13.812;2023-09-18T07:07:38;98845.97;;;23.22;59.60
39267;BME280;24967;51.154;13.812;2023-09-18T07:10:05;98840.38;;;23.29;59.40
39267;BME280;24967;51.154;13.812;2023-09-18T07:12:32;98837.53;;;23.19;59.36
39267;BME280;24967;51.154;13.812;2023-09-18T07:15:00;98838.34;;;23.19;59.57
39267;BME280;24967;51.154;13.812;2023-09-18T07:17:29;98834.25;;;23.39;59.54
39267;BME280;24967;51.154;13.812;2023-09-18T07:19:55;98830.44;;;23.35;59.36
39267;BME280;24967;51.154;13.812;2023-09-18T07:22:23;98823.41;;;23.39;59.10
39267;BME280;24967;51.154;13.812;2023-09-18T07:24:50;98815.81;;;23.58;58.67
39267;BME280;24967;51.154;13.812;2023-09-18T07:27:16;98815.72;;;23.69;58.20
39267;BME280;24967;51.154;13.812;2023-09-18T07:29:43;98828.00;;;23.77;57.99
39267;BME280;24967;51.154;13.812;2023-09-18T07:32:09;98840.34;;;23.90;58.99
39267;BME280;24967;51.154;13.812;2023-09-18T07:34:36;98829.19;;;24.13;57.78
39267;BME280;24967;51.154;13.812;2023-09-18T07:37:02;98822.34;;;24.33;57.13
39267;BME280;24967;51.154;13.812;2023-09-18T07:39:30;98814.03;;;24.44;56.81
39267;BME280;24967;51.154;13.812;2023-09-18T07:41:57;98820.38;;;24.28;56.17
39267;BME280;24967;51.154;13.812;2023-09-18T07:44:24;98815.00;;;24.33;55.78
39267;BME280;24967;51.154;13.812;2023-09-18T07:46:50;98810.72;;;24.70;55.60
39267;BME280;24967;51.154;13.812;2023-09-18T07:49:17;98811.31;;;24.77;54.60
39267;BME280;24967;51.154;13.812;2023-09-18T07:51:44;98797.31;;;25.43;53.16
39267;BME280;24967;51.154;13.812;2023-09-18T07:54:13;98800.84;;;26.26;51.30
39267;BME280;24967;51.154;13.812;2023-09-18T07:56:42;98799.75;;;26.79;49.76
39267;BME280;24967;51.154;13.812;2023-09-18T07:59:08;98792.34;;;27.15;48.41
39267;BME280;24967;51.154;13.812;2023-09-18T08:01:35;98793.78;;;27.67;47.04
39267;BME280;24967;51.154;13.812;2023-09-18T08:04:02;98794.16;;;28.05;45.99
39267;BME280;24967;51.154;13.812;2023-09-18T08:06:30;98791.97;;;28.41;45.79
39267;BME280;24967;51.154;13.812;2023-09-18T08:08:57;98799.41;;;28.99;44.41
39267;BME280;24967;51.154;13.812;2023-09-18T08:11:23;98796.13;;;29.02;43.84
39267;BME280;24967;51.154;13.812;2023-09-18T08:13:51;98793.66;;;29.25;43.59
39267;BME280;24967;51.154;13.812;2023-09-18T08:16:18;98790.22;;;29.38;43.01
39267;BME280;24967;51.154;13.812;2023-09-18T08:18:44;98779.97;;;29.73;42.02
39267;BME280;24967;51.154;13.812;2023-09-18T08:21:11;98761.47;;;30.21;40.75
39267;BME280;24967;51.154;13.812;2023-09-18T08:23:39;98769.56;;;30.45;40.18
39267;BME280;24967;51.154;13.812;2023-09-18T08:26:05;98768.50;;;30.74;39.96
39267;BME280;24967;51.154;13.812;2023-09-18T08:28:32;98771.03;;;31.31;39.29
39267;BME280;24967;51.154;13.812;2023-09-18T08:31:02;98776.09;;;31.79;38.10
39267;BME280;24967;51.154;13.812;2023-09-18T08:33:28;98781.84;;;32.27;37.15
39267;BME280;24967;51.154;13.812;2023-09-18T08:35:55;98778.22;;;32.18;37.37
39267;BME280;24967;51.154;13.812;2023-09-18T08:38:22;98777.94;;;31.28;37.73
39267;BME280;24967;51.154;13.812;2023-09-18T08:40:48;98770.13;;;31.49;37.75
39267;BME280;24967;51.154;13.812;2023-09-18T08:43:16;98771.41;;;31.79;37.55
39267;BME280;24967;51.154;13.812;2023-09-18T08:45:46;98771.47;;;32.24;36.84
39267;BME280;24967;51.154;13.812;2023-09-18T08:48:15;98763.19;;;32.38;36.52
39267;BME280;24967;51.154;13.812;2023-09-18T08:50:42;98766.59;;;32.97;35.99
39267;BME280;24967;51.154;13.812;2023-09-18T08:53:09;98757.78;;;33.58;34.14
39267;BME280;24967;51.154;13.812;2023-09-18T08:55:36;98748.09;;;33.86;33.60
39267;BME280;24967;51.154;13.812;2023-09-18T08:58:03;98749.03;;;34.42;32.82
39267;BME280;24967;51.154;13.812;2023-09-18T09:00:30;98751.28;;;34.67;32.50
39267;BME280;24967;51.154;13.812;2023-09-18T09:02:56;98747.63;;;35.30;32.06
39267;BME280;24967;51.154;13.812;2023-09-18T09:05:24;98736.84;;;35.67;31.00
39267;BME280;24967;51.154;13.812;2023-09-18T09:07:51;98731.44;;;35.50;30.47
39267;BME280;24967;51.154;13.812;2023-09-18T09:10:17;98729.38;;;35.38;30.76
39267;BME280;24967;51.154;13.812;2023-09-18T09:12:52;98730.59;;;34.90;31.87
39267;BME280;24967;51.154;13.812;2023-09-18T09:15:21;98728.41;;;34.66;31.48
39267;BME280;24967;51.154;13.812;2023-09-18T09:17:47;98722.25;;;34.34;32.02
39267;BME280;24967;51.154;13.812;2023-09-18T09:20:16;98734.97;;;33.83;33.24
39267;BME280;24967;51.154;13.812;2023-09-18T09:22:45;98722.94;;;33.88;33.25
39267;BME280;24967;51.154;13.812;2023-09-18T09:25:23;98718.22;;;33.80;33.39
39267;BME280;24967;51.154;13.812;2023-09-18T09:27:51;98709.59;;;33.46;33.64
39267;BME280;24967;51.154;13.812;2023-09-18T09:30:19;98714.38;;;33.15;33.82
39267;BME280;24967;51.154;13.812;2023-09-18T09:32:48;98721.47;;;32.98;35.05
39267;BME280;24967;51.154;13.812;2023-09-18T09:35:20;98718.88;;;32.71;34.20
39267;BME280;24967;51.154;13.812;2023-09-18T09:37:48;98719.84;;;32.66;35.49
39267;BME280;24967;51.154;13.812;2023-09-18T09:40:16;98714.69;;;32.73;35.03
39267;BME280;24967;51.154;13.812;2023-09-18T09:42:42;98721.72;;;32.88;35.38
39267;BME280;24967;51.154;13.812;2023-09-18T09:45:12;98708.78;;;32.97;35.19
39267;BME280;24967;51.154;13.812;2023-09-18T09:47:39;98711.31;;;33.16;35.16
39267;BME280;24967;51.154;13.812;2023-09-18T09:50:11;98711.78;;;33.10;35.81
39267;BME280;24967;51.154;13.812;2023-09-18T09:52:43;98706.13;;;33.15;35.81
39267;BME280;24967;51.154;13.812;2023-09-18T09:55:26;98700.44;;;33.02;34.55
39267;BME280;24967;51.154;13.812;2023-09-18T09:57:54;98709.06;;;32.78;35.39
39267;BME280;24967;51.154;13.812;2023-09-18T10:00:23;98711.41;;;32.63;35.58
39267;BME280;24967;51.154;13.812;2023-09-18T10:03:00;98711.66;;;32.52;35.75
39267;BME280;24967;51.154;13.812;2023-09-18T10:05:30;98719.56;;;32.23;35.76
39267;BME280;24967;51.154;13.812;2023-09-18T10:08:02;98734.88;;;31.92;35.99
39267;BME280;24967;51.154;13.812;2023-09-18T10:10:32;98728.50;;;31.56;36.32
39267;BME280;24967;51.154;13.812;2023-09-18T10:13:03;98727.63;;;31.33;37.20
39267;BME280;24967;51.154;13.812;2023-09-18T10:15:33;98740.00;;;31.16;37.26
39267;BME280;24967;51.154;13.812;2023-09-18T10:18:05;98758.47;;;30.69;38.51
39267;BME280;24967;51.154;13.812;2023-09-18T10:20:37;98747.81;;;30.35;38.32
39267;BME280;24967;51.154;13.812;2023-09-18T10:23:12;98736.47;;;30.42;38.96
39267;BME280;24967;51.154;13.812;2023-09-18T10:25:44;98726.91;;;30.39;38.77
39267;BME280;24967;51.154;13.812;2023-09-18T10:28:11;98735.06;;;30.44;39.44
39267;BME280;24967;51.154;13.812;2023-09-18T10:30:42;98734.00;;;30.40;37.99
39267;BME280;24967;51.154;13.812;2023-09-18T10:33:09;98723.22;;;30.30;38.63
39267;BME280;24967;51.154;13.812;2023-09-18T10:35:36;98718.50;;;30.49;38.92
39267;BME280;24967;51.154;13.812;2023-09-18T10:38:05;98711.31;;;30.67;38.68
39267;BME280;24967;51.154;13.812;2023-09-18T10:40:34;98713.50;;;31.12;38.15
39267;BME280;24967;51.154;13.812;2023-09-18T10:43:04;98710.84;;;31.48;37.78
39267;BME280;24967;51.154;13.812;2023-09-18T10:45:35;98719.81;;;31.76;36.51
39267;BME280;24967;51.154;13.812;2023-09-18T10:48:05;98714.81;;;32.14;36.78
39267;BME280;24967;51.154;13.812;2023-09-18T10:50:34;98706.41;;;32.42;35.75
39267;BME280;24967;51.154;13.812;2023-09-18T10:53:01;98712.13;;;32.46;35.50
39267;BME280;24967;51.154;13.812;2023-09-18T10:55:28;98709.16;;;32.42;35.81
39267;BME280;24967;51.154;13.812;2023-09-18T10:57:55;98704.59;;;32.37;35.71
39267;BME280;24967;51.154;13.812;2023-09-18T11:00:26;98703.59;;;32.33;35.81
39267;BME280;24967;51.154;13.812;2023-09-18T11:02:53;98699.31;;;32.19;36.24
39267;BME280;24967;51.154;13.812;2023-09-18T11:05:32;98704.00;;;32.18;36.24
39267;BME280;24967;51.154;13.812;2023-09-18T11:08:24;98705.56;;;32.10;35.88
39267;BME280;24967;51.154;13.812;2023-09-18T11:11:02;98705.19;;;32.03;36.08
39267;BME280;24967;51.154;13.812;2023-09-18T11:13:36;98711.13;;;31.97;36.18
39267;BME280;24967;51.154;13.812;2023-09-18T11:16:19;98713.50;;;31.76;36.10
39267;BME280;24967;51.154;13.812;2023-09-18T11:19:07;98707.16;;;31.53;36.40
39267;BME280;24967;51.154;13.812;2023-09-18T11:21:34;98709.19;;;31.33;36.31
39267;BME280;24967;51.154;13.812;2023-09-18T11:24:02;98707.31;;;31.20;36.74
39267;BME280;24967;51.154;13.812;2023-09-18T11:26:29;98707.09;;;31.02;37.28
39267;BME280;24967;51.154;13.812;2023-09-18T11:28:58;98714.84;;;30.87;37.50
39267;BME280;24967;51.154;13.812;2023-09-18T11:31:42;98720.88;;;30.70;37.95
39267;BME280;24967;51.154;13.812;2023-09-18T11:34:13;98710.91;;;30.60;38.90
39267;BME280;24967;51.154;13.812;2023-09-18T11:36:40;98714.75;;;30.59;38.86
39267;BME280;24967;51.154;13.812;2023-09-18T11:39:07;98718.66;;;30.72;38.85
39267;BME280;24967;51.154;13.812;2023-09-18T11:41:35;98724.56;;;30.79;38.74
39267;BME280;24967;51.154;13.812;2023-09-18T11:44:32;98721.81;;;30.79;39.63
39267;BME280;24967;51.154;13.812;2023-09-18T11:47:01;98720.00;;;30.88;39.19
39267;BME280;24967;51.154;13.812;2023-09-18T11:49:30;98718.88;;;31.03;40.43
39267;BME280;24967;51.154;13.812;2023-09-18T11:51:58;98724.25;;;31.22;38.75
39267;BME280;24967;51.154;13.812;2023-09-18T11:54:27;98718.13;;;31.53;38.82
39267;BME280;24967;51.154;13.812;2023-09-18T11:56:54;98716.88;;;31.73;37.82
39267;BME280;24967;51.154;13.812;2023-09-18T11:59:33;98719.25;;;31.52;38.13
39267;BME280;24967;51.154;13.812;2023-09-18T12:02:03;98711.63;;;31.62;37.61
39267;BME280;24967;51.154;13.812;2023-09-18T12:04:31;98706.00;;;31.67;37.60
39267;BME280;24967;51.154;13.812;2023-09-18T12:06:58;98709.75;;;31.71;37.46
39267;BME280;24967;51.154;13.812;2023-09-18T12:09:26;98715.63;;;31.79;37.19
39267;BME280;24967;51.154;13.812;2023-09-18T12:11:52;98707.38;;;31.56;38.43
39267;BME280;24967;51.154;13.812;2023-09-18T12:14:21;98701.25;;;31.59;37.76
39267;BME280;24967;51.154;13.812;2023-09-18T12:16:47;98715.19;;;31.63;38.30
39267;BME280;24967;51.154;13.812;2023-09-18T12:19:18;98704.75;;;31.74;38.10
39267;BME280;24967;51.154;13.812;2023-09-18T12:21:46;98696.50;;;31.51;37.35
39267;BME280;24967;51.154;13.812;2023-09-18T12:24:14;98695.16;;;31.48;38.70
39267;BME280;24967;51.154;13.812;2023-09-18T12:26:40;98700.41;;;31.59;39.70
39267;BME280;24967;51.154;13.812;2023-09-18T12:29:07;98693.66;;;31.79;37.59
39267;BME280;24967;51.154;13.812;2023-09-18T12:31:35;98694.81;;;32.00;37.39
39267;BME280;24967;51.154;13.812;2023-09-18T12:34:02;98693.31;;;31.94;37.33
39267;BME280;24967;51.154;13.812;2023-09-18T12:36:30;98699.88;;;31.70;37.97
39267;BME280;24967;51.154;13.812;2023-09-18T12:38:57;98705.06;;;31.72;37.36
39267;BME280;24967;51.154;13.812;2023-09-18T12:41:26;98699.00;;;31.61;37.61
39267;BME280;24967;51.154;13.812;2023-09-18T12:43:53;98698.28;;;31.56;37.18
39267;BME280;24967;51.154;13.812;2023-09-18T12:46:20;98703.59;;;31.52;37.40
39267;BME280;24967;51.154;13.812;2023-09-18T12:48:47;98703.13;;;31.50;37.19
39267;BME280;24967;51.154;13.812;2023-09-18T12:51:14;98710.84;;;31.48;37.64
39267;BME280;24967;51.154;13.812;2023-09-18T12:53:46;98713.88;;;31.46;37.90